Terminal Aerodrome Forecast
Issued by NWS

Home | Current Version | Previous Version | Graphics & Text | Print | Product List | Glossary On
Versions: 1 2 3 4 5 6 7 8 9 10 11 12 13 14 15 16 17
000
FTUS43 KABR 190527
TAFATY
TAF
KATY 190527Z 1906/2006 19006KT P6SM BKN250
     FM191700 20017G24KT P6SM SKC
     FM200100 18012KT P6SM SKC WS020/20040KT=

USA.gov is the U.S. government's official web portal to all federal, state and local government web resources and services.